Time;durP1;ratioP1;P1;durP2;ratioP2;P2;SDS_P1;SDS_P2;PMS_P1;PMS_P2;Temp;Humidity;BMP_temperature;BMP_pressure;BME280_temperature;BME280_humidity;BME280_pressure;Samples;Min_cycle;Max_cycle;Signal;HPM_P1;HPM_P2
2022/06/02 00:00:17;;;;;;;4.85;1.50;;;13.90;97.80;;;;;;5043940;28;20033;-77
2022/06/02 00:03:06;;;;;;;2.08;0.60;;;14.30;98.10;;;;;;5044208;28;20035;-76
2022/06/02 00:06:11;;;;;;;1.30;0.60;;;15.40;97.00;;;;;;5028862;28;20441;-75
2022/06/02 00:08:57;;;;;;;1.02;0.40;;;16.70;94.90;;;;;;5031795;28;20037;-77
2022/06/02 00:11:35;;;;;;;0.95;0.40;;;17.00;93.20;;;;;;5034579;28;20049;-77
2022/06/02 00:14:29;;;;;;;1.80;0.85;;;16.80;94.10;;;;;;5034115;28;20672;-75
2022/06/02 00:17:17;;;;;;;1.58;0.70;;;16.30;93.80;;;;;;5043023;28;20091;-78
2022/06/02 00:19:56;;;;;;;1.88;0.68;;;15.60;94.60;;;;;;5053337;28;20029;-83
2022/06/02 00:23:04;;;;;;;1.45;0.60;;;15.20;95.20;;;;;;5038674;28;20167;-75
2022/06/02 00:25:59;;;;;;;2.35;0.85;;;15.00;95.60;;;;;;5045875;28;20513;-80
2022/06/02 00:28:38;;;;;;;2.10;0.75;;;14.80;96.10;;;;;;5029626;28;20171;-75
2022/06/02 00:31:12;;;;;;;2.03;1.35;;;15.00;96.50;;;;;;5038314;28;20487;-77
2022/06/02 00:34:00;;;;;;;2.08;0.80;;;15.10;96.20;;;;;;5037543;28;20124;-77
2022/06/02 00:36:44;;;;;;;3.22;1.00;;;15.10;96.30;;;;;;5031805;28;20092;-78
2022/06/02 00:39:12;;;;;;;2.85;1.00;;;15.00;96.20;;;;;;5042338;28;20033;-76
2022/06/02 00:42:03;;;;;;;1.40;0.93;;;14.80;97.00;;;;;;5034898;28;20032;-77
2022/06/02 00:44:37;;;;;;;2.30;0.90;;;14.80;97.20;;;;;;5044897;28;20041;-79
2022/06/02 00:47:26;;;;;;;1.95;1.20;;;15.00;96.80;;;;;;5037106;28;20044;-77
2022/06/02 00:50:04;;;;;;;1.38;0.82;;;15.10;97.30;;;;;;5049684;28;20123;-88
2022/06/02 00:52:40;;;;;;;1.77;0.80;;;15.60;96.90;;;;;;5053015;28;20094;-82
2022/06/02 00:58:23;;;;;;;0.90;0.60;;;16.50;96.50;;;;;;5041556;28;20260;-84
2022/06/02 01:01:16;;;;;;;2.83;0.70;;;17.20;95.60;;;;;;5043181;28;20108;-80
2022/06/02 01:03:48;;;;;;;4.85;0.50;;;17.50;94.40;;;;;;5040148;28;20428;-82
2022/06/02 01:06:18;;;;;;;1.98;0.73;;;17.10;94.80;;;;;;5035594;28;20499;-88
2022/06/02 01:09:04;;;;;;;4.35;1.15;;;17.10;95.20;;;;;;5034760;28;20049;-82
2022/06/02 01:12:05;;;;;;;0.70;0.37;;;17.10;94.80;;;;;;5039344;28;20099;-81
2022/06/02 01:14:41;;;;;;;0.35;0.28;;;17.20;95.30;;;;;;5045066;28;20301;-79
2022/06/02 01:17:58;;;;;;;0.73;0.30;;;17.60;94.30;;;;;;5043544;28;20048;-81
2022/06/02 01:20:35;;;;;;;2.28;0.20;;;18.30;93.70;;;;;;5029140;28;20045;-84
2022/06/02 01:23:16;;;;;;;0.32;0.13;;;19.00;93.30;;;;;;5034496;28;20029;-85
2022/06/02 01:25:50;;;;;;;2.63;0.20;;;18.90;92.20;;;;;;5035804;28;20041;-81
2022/06/02 01:28:43;;;;;;;0.17;0.10;;;18.90;92.10;;;;;;5042921;28;20100;-84
2022/06/02 01:31:24;;;;;;;0.25;0.10;;;18.70;91.70;;;;;;5028815;28;20037;-88
2022/06/02 01:34:00;;;;;;;0.25;0.10;;;18.70;91.10;;;;;;5041980;28;20033;-79
2022/06/02 01:36:42;;;;;;;0.40;0.20;;;18.50;91.10;;;;;;5040203;28;20384;-77
2022/06/02 01:39:25;;;;;;;0.35;0.10;;;18.60;91.50;;;;;;5039906;28;20067;-85
2022/06/02 01:42:08;;;;;;;0.30;0.20;;;18.80;90.70;;;;;;5043307;28;20029;-83
2022/06/02 01:44:44;;;;;;;1.13;0.20;;;18.70;90.30;;;;;;5055317;28;20484;-82
2022/06/02 01:47:27;;;;;;;0.20;0.10;;;18.50;90.80;;;;;;5049439;28;20108;-80
2022/06/02 01:50:13;;;;;;;0.20;0.10;;;18.60;90.80;;;;;;5041156;28;20480;-81
2022/06/02 01:52:49;;;;;;;0.20;0.10;;;18.50;90.30;;;;;;5041139;28;20541;-76
2022/06/02 01:55:54;;;;;;;1.83;0.10;;;19.10;90.30;;;;;;5038063;28;20083;-82
2022/06/02 01:58:56;;;;;;;0.10;0.10;;;20.00;89.10;;;;;;5037858;28;20436;-81
2022/06/02 02:01:41;;;;;;;0.32;0.10;;;20.80;88.30;;;;;;5020365;28;20123;-83
2022/06/02 02:04:20;;;;;;;0.00;0.00;;;20.80;87.80;;;;;;5045119;28;20043;-81
2022/06/02 02:07:17;;;;;;;2.53;0.30;;;20.60;86.10;;;;;;5044016;28;20036;-82
2022/06/02 02:10:13;;;;;;;1.48;0.32;;;20.00;88.50;;;;;;5040400;28;20017;-81
2022/06/02 02:13:14;;;;;;;0.63;0.20;;;19.40;88.50;;;;;;5045885;28;20508;-81
2022/06/02 02:16:02;;;;;;;0.25;0.20;;;18.90;88.60;;;;;;5041015;28;20424;-79
2022/06/02 02:18:57;;;;;;;0.32;0.20;;;18.60;89.80;;;;;;5029998;28;20480;-79
2022/06/02 02:21:50;;;;;;;0.43;0.20;;;18.70;90.50;;;;;;5037053;28;20037;-81
2022/06/02 02:24:29;;;;;;;2.17;0.17;;;18.80;90.10;;;;;;5036284;28;20070;-80
2022/06/02 02:27:17;;;;;;;0.40;0.10;;;18.90;89.50;;;;;;5038106;28;20021;-82
2022/06/02 02:30:06;;;;;;;0.10;0.10;;;18.90;89.50;;;;;;5045273;28;20021;-79
2022/06/02 02:33:04;;;;;;;0.52;0.10;;;19.60;88.20;;;;;;5047332;28;20025;-77
2022/06/02 02:36:14;;;;;;;0.22;0.13;;;20.00;87.10;;;;;;5038607;28;20040;-77
2022/06/02 02:38:53;;;;;;;2.05;0.10;;;20.20;86.50;;;;;;5043333;28;20025;-76
2022/06/02 02:41:48;;;;;;;2.22;0.20;;;20.70;86.10;;;;;;5056457;28;20029;-75
2022/06/02 02:44:26;;;;;;;0.13;0.10;;;20.90;85.90;;;;;;5048999;28;20061;-80
2022/06/02 02:47:08;;;;;;;0.60;0.30;;;20.30;86.30;;;;;;5044107;28;20049;-81
2022/06/02 02:49:43;;;;;;;0.95;0.90;;;19.70;88.30;;;;;;5034451;28;20060;-80
2022/06/02 02:52:41;;;;;;;1.95;0.17;;;19.40;88.60;;;;;;5039915;28;20353;-78
2022/06/02 02:55:18;;;;;;;1.05;0.10;;;19.30;88.90;;;;;;5041993;28;20040;-77
2022/06/02 02:57:56;;;;;;;0.38;0.20;;;19.30;88.70;;;;;;5031645;28;20094;-79
2022/06/02 03:00:29;;;;;;;0.88;0.35;;;19.30;89.20;;;;;;5028539;28;20033;-80
2022/06/02 03:03:16;;;;;;;0.10;0.10;;;19.10;88.70;;;;;;5048212;28;20395;-78
2022/06/02 03:06:21;;;;;;;1.80;0.25;;;18.90;90.20;;;;;;5032719;28;20391;-82
2022/06/02 03:09:02;;;;;;;1.95;0.10;;;18.60;90.10;;;;;;5031218;28;20033;-79
2022/06/02 03:11:39;;;;;;;1.58;0.10;;;18.40;90.00;;;;;;5049639;28;20025;-78
2022/06/02 03:14:43;;;;;;;0.20;0.10;;;18.00;90.60;;;;;;5039676;28;20044;-79
2022/06/02 03:17:34;;;;;;;1.05;0.10;;;17.80;90.90;;;;;;5026676;28;20423;-78
2022/06/02 03:20:20;;;;;;;0.52;0.10;;;18.00;90.70;;;;;;5045582;28;20411;-80
2022/06/02 03:23:15;;;;;;;1.13;0.17;;;18.20;90.90;;;;;;5039820;28;20757;-79
2022/06/02 03:25:51;;;;;;;2.65;0.28;;;18.50;90.20;;;;;;5036902;28;20075;-80
2022/06/02 03:28:55;;;;;;;0.40;0.15;;;18.30;89.90;;;;;;5028102;28;20047;-77
2022/06/02 03:31:33;;;;;;;0.68;0.20;;;18.00;90.40;;;;;;5044030;28;20024;-77
2022/06/02 03:34:15;;;;;;;0.40;0.10;;;17.70;91.00;;;;;;5044385;28;20044;-77
2022/06/02 03:36:48;;;;;;;1.05;0.20;;;17.40;90.80;;;;;;5029585;28;20033;-80
2022/06/02 03:39:50;;;;;;;0.82;0.30;;;17.20;90.70;;;;;;5030825;28;20081;-80
2022/06/02 03:42:35;;;;;;;1.40;0.28;;;17.00;91.30;;;;;;5026789;28;20030;-78
2022/06/02 03:45:23;;;;;;;0.35;0.20;;;17.00;91.50;;;;;;5028044;28;20036;-78
2022/06/02 03:48:14;;;;;;;0.28;0.10;;;17.00;91.50;;;;;;5040055;28;20033;-76
2022/06/02 03:50:51;;;;;;;2.28;0.17;;;17.00;91.30;;;;;;5042558;28;20448;-78
2022/06/02 03:53:37;;;;;;;1.90;0.20;;;17.00;91.20;;;;;;5039488;28;20040;-79
2022/06/02 03:56:07;;;;;;;;;;;17.10;91.60;;;;;;5039008;28;20053;-77
2022/06/02 03:58:55;;;;;;;2.88;0.20;;;17.00;91.60;;;;;;5037634;28;19911;-79
2022/06/02 04:01:29;;;;;;;0.50;0.13;;;17.00;91.20;;;;;;5027974;28;20464;-77
2022/06/02 04:04:17;;;;;;;0.77;0.38;;;17.00;91.50;;;;;;5033421;28;20076;-78
2022/06/02 04:07:35;;;;;;;1.45;0.15;;;16.90;91.80;;;;;;5052431;28;20041;-78
2022/06/02 04:10:32;;;;;;;0.13;0.10;;;16.90;91.40;;;;;;5050732;28;20037;-82
2022/06/02 04:13:38;;;;;;;0.00;0.00;;;16.80;91.60;;;;;;5048351;28;20040;-79
2022/06/02 04:16:20;;;;;;;0.20;0.20;;;16.80;91.50;;;;;;5034775;28;20509;-77
2022/06/02 04:22:24;;;;;;;5.40;0.60;;;16.40;91.20;;;;;;5050260;28;20170;-80
2022/06/02 04:25:10;;;;;;;0.50;0.20;;;16.20;91.30;;;;;;5040124;28;20068;-80
2022/06/02 04:27:38;;;;;;;1.00;0.30;;;16.00;91.90;;;;;;5050415;28;20029;-81
2022/06/02 04:30:21;;;;;;;1.35;0.20;;;15.90;92.00;;;;;;5048244;28;20124;-79
2022/06/02 04:33:20;;;;;;;0.65;0.28;;;15.80;92.00;;;;;;5031894;28;20098;-80
2022/06/02 04:36:25;;;;;;;0.40;0.20;;;15.70;92.30;;;;;;5044904;28;20044;-80
2022/06/02 04:39:01;;;;;;;1.08;0.30;;;15.60;92.60;;;;;;4996031;28;20029;-80
2022/06/02 04:41:31;;;;;;;;;;;15.50;92.50;;;;;;5011909;28;20033;-79
2022/06/02 04:44:17;;;;;;;3.38;0.65;;;15.50;92.60;;;;;;5023012;28;19908;-77
2022/06/02 04:47:11;;;;;;;1.63;0.35;;;15.50;92.60;;;;;;5041245;28;20064;-82
2022/06/02 04:49:55;;;;;;;0.60;0.28;;;15.40;92.40;;;;;;5049760;28;20049;-81
2022/06/02 04:52:25;;;;;;;0.73;0.30;;;15.40;92.80;;;;;;5032250;28;20033;-81
2022/06/02 04:55:29;;;;;;;0.43;0.32;;;15.30;92.70;;;;;;5037757;28;20041;-79
2022/06/02 04:58:21;;;;;;;2.33;0.47;;;15.40;92.70;;;;;;5036461;28;20026;-79
2022/06/02 05:01:22;;;;;;;1.02;0.40;;;15.40;92.80;;;;;;5038955;28;20034;-83
2022/06/02 05:04:02;;;;;;;0.20;0.10;;;15.30;92.70;;;;;;5047632;28;20025;-79
2022/06/02 05:06:56;;;;;;;1.92;0.20;;;15.30;92.50;;;;;;5041238;28;20472;-77
2022/06/02 05:09:31;;;;;;;1.20;0.20;;;15.20;92.70;;;;;;5048286;28;20476;-77
2022/06/02 05:12:19;;;;;;;0.20;0.17;;;15.10;92.80;;;;;;5039859;28;20052;-77
2022/06/02 05:15:05;;;;;;;0.45;0.40;;;15.10;92.30;;;;;;5046046;28;20037;-78
2022/06/02 05:18:17;;;;;;;4.50;0.20;;;15.20;92.50;;;;;;5034411;28;20021;-77
2022/06/02 05:21:03;;;;;;;0.80;0.30;;;15.10;92.80;;;;;;5046130;28;20033;-78
2022/06/02 05:24:00;;;;;;;0.10;0.10;;;15.10;92.80;;;;;;5034067;28;20059;-79
2022/06/02 05:26:45;;;;;;;1.92;0.75;;;15.00;92.80;;;;;;5051507;28;20487;-77
2022/06/02 05:29:21;;;;;;;0.15;0.10;;;15.00;92.90;;;;;;5048111;28;20499;-78
2022/06/02 05:32:11;;;;;;;0.63;0.38;;;15.00;92.90;;;;;;5044696;28;20514;-81
2022/06/02 05:34:56;;;;;;;1.33;0.40;;;15.00;93.10;;;;;;5049697;28;20090;-78
2022/06/02 05:37:50;;;;;;;0.28;0.20;;;14.90;93.40;;;;;;5052765;28;20127;-81
2022/06/02 05:40:30;;;;;;;3.60;0.43;;;15.00;93.50;;;;;;5031742;28;20114;-79
2022/06/02 05:43:30;;;;;;;1.50;0.57;;;14.90;93.70;;;;;;5038813;28;20026;-78
2022/06/02 05:46:13;;;;;;;1.13;0.35;;;14.80;93.60;;;;;;5031414;28;20422;-78
2022/06/02 05:48:58;;;;;;;2.97;1.20;;;14.70;93.20;;;;;;5045713;28;20579;-80
2022/06/02 05:51:35;;;;;;;1.42;0.82;;;14.60;93.50;;;;;;5046486;28;20059;-78
2022/06/02 05:54:27;;;;;;;3.53;1.08;;;14.60;93.60;;;;;;5046946;28;20041;-78
2022/06/02 05:57:30;;;;;;;1.58;0.45;;;14.40;93.80;;;;;;5045508;28;20032;-78
2022/06/02 06:00:03;;;;;;;0.65;0.60;;;14.20;94.10;;;;;;5054630;28;20040;-78
2022/06/02 06:02:36;;;;;;;1.50;0.70;;;14.10;94.10;;;;;;5046564;28;20013;-77
2022/06/02 06:05:53;;;;;;;1.50;0.30;;;14.10;94.40;;;;;;5048492;28;20025;-78
2022/06/02 06:08:45;;;;;;;1.55;0.50;;;14.00;94.60;;;;;;5044541;28;20051;-77
2022/06/02 06:11:53;;;;;;;1.10;0.30;;;14.00;94.70;;;;;;5041847;28;20033;-77
2022/06/02 06:14:46;;;;;;;1.40;0.70;;;14.00;94.70;;;;;;5041885;28;20041;-80
2022/06/02 06:17:26;;;;;;;1.83;0.82;;;14.00;95.00;;;;;;5036160;28;20049;-79
2022/06/02 06:20:16;;;;;;;2.13;1.23;;;13.90;95.30;;;;;;5035652;28;20040;-80
2022/06/02 06:22:55;;;;;;;1.48;0.77;;;13.90;95.40;;;;;;5006419;28;20061;-76
2022/06/02 06:25:46;;;;;;;2.22;0.50;;;13.90;95.50;;;;;;5026957;28;20032;-81
2022/06/02 06:28:23;;;;;;;1.77;0.90;;;13.80;95.70;;;;;;5031867;28;20033;-76
2022/06/02 06:31:22;;;;;;;1.58;0.55;;;13.80;95.60;;;;;;5044899;28;20099;-86
2022/06/02 06:34:07;;;;;;;0.50;0.32;;;13.80;95.80;;;;;;5036203;28;20041;-80
2022/06/02 06:36:43;;;;;;;2.38;0.63;;;13.70;96.30;;;;;;5035152;28;20053;-78
2022/06/02 06:39:37;;;;;;;1.02;0.50;;;13.70;96.40;;;;;;5031465;28;20021;-81
2022/06/02 06:42:16;;;;;;;1.73;0.68;;;13.50;96.50;;;;;;5031531;28;20376;-81
2022/06/02 06:45:40;;;;;;;1.60;0.63;;;13.40;96.70;;;;;;5028739;28;20522;-76
2022/06/02 06:48:30;;;;;;;1.77;1.30;;;13.40;96.60;;;;;;5035116;28;20072;-79
2022/06/02 06:51:20;;;;;;;1.67;0.80;;;13.30;96.70;;;;;;5022853;28;20049;-77
2022/06/02 06:54:09;;;;;;;1.23;0.82;;;13.20;97.00;;;;;;5038390;28;20109;-82
2022/06/02 06:57:01;;;;;;;1.65;0.70;;;13.10;97.00;;;;;;5031764;28;20040;-80
2022/06/02 06:59:50;;;;;;;4.05;1.58;;;13.00;97.50;;;;;;5031472;28;20104;-77
2022/06/02 07:02:35;;;;;;;;;;;12.90;98.70;;;;;;5039962;28;20424;-78
2022/06/02 07:05:46;;;;;;;4.65;2.38;;;12.80;99.10;;;;;;5029797;28;19920;-82
2022/06/02 07:08:31;;;;;;;5.70;3.55;;;12.70;99.40;;;;;;5040168;28;20133;-78
2022/06/02 07:14:38;;;;;;;4.18;2.22;;;12.40;99.90;;;;;;5039086;28;20423;-79
2022/06/02 07:17:28;;;;;;;4.70;1.73;;;12.30;99.90;;;;;;5027084;28;20026;-78
2022/06/02 07:20:13;;;;;;;2.58;1.55;;;12.20;99.90;;;;;;5030307;28;20037;-80
2022/06/02 07:23:14;;;;;;;3.13;1.52;;;12.10;99.90;;;;;;5035529;28;20021;-80
2022/06/02 07:26:11;;;;;;;5.10;1.08;;;11.90;99.90;;;;;;5044651;28;20047;-79
2022/06/02 07:28:38;;;;;;;1.63;0.90;;;11.80;99.90;;;;;;5030173;28;20041;-79
2022/06/02 07:31:42;;;;;;;2.97;0.98;;;11.70;99.90;;;;;;5035473;28;20128;-79
2022/06/02 07:34:40;;;;;;;2.17;1.05;;;11.60;99.90;;;;;;5031823;28;20400;-79
2022/06/02 07:37:29;;;;;;;4.00;1.02;;;11.60;99.90;;;;;;5036447;28;20048;-77
2022/06/02 07:40:13;;;;;;;2.80;1.20;;;11.50;99.90;;;;;;5033500;28;20172;-80
2022/06/02 07:43:05;;;;;;;2.08;1.17;;;11.40;99.90;;;;;;5038968;28;20375;-79
2022/06/02 07:46:00;;;;;;;6.75;2.70;;;11.30;99.90;;;;;;5034842;28;20029;-79
2022/06/02 07:48:44;;;;;;;12.60;7.63;;;11.30;99.90;;;;;;5035075;28;20065;-79
2022/06/02 07:51:18;;;;;;;17.58;7.90;;;11.30;99.90;;;;;;5028631;28;20022;-81
2022/06/02 07:53:50;;;;;;;17.70;9.90;;;11.30;99.90;;;;;;5044300;28;20029;-82
2022/06/02 07:56:33;;;;;;;17.15;10.32;;;11.30;99.90;;;;;;5037806;28;20036;-78
2022/06/02 07:59:28;;;;;;;16.92;9.10;;;11.30;99.90;;;;;;5032989;28;20026;-81
2022/06/02 08:02:06;;;;;;;13.13;7.65;;;11.20;99.90;;;;;;5044744;28;20037;-77
2022/06/02 08:04:45;;;;;;;15.73;8.68;;;11.20;99.90;;;;;;5037428;28;20075;-76
2022/06/02 08:07:30;;;;;;;12.68;7.07;;;11.20;99.90;;;;;;5037539;28;20506;-78
2022/06/02 08:10:16;;;;;;;7.07;4.38;;;11.20;99.90;;;;;;5043137;28;20025;-79
2022/06/02 08:12:46;;;;;;;10.02;5.75;;;11.20;99.90;;;;;;5039473;28;20029;-81
2022/06/02 08:15:22;;;;;;;10.57;4.70;;;11.20;99.90;;;;;;5038019;28;20033;-78
2022/06/02 08:18:20;;;;;;;8.63;5.15;;;11.20;99.90;;;;;;5037220;28;20128;-76
2022/06/02 08:21:17;;;;;;;8.45;4.70;;;11.20;99.90;;;;;;5024284;28;20041;-78
2022/06/02 08:24:07;;;;;;;6.10;4.22;;;11.20;99.90;;;;;;5043007;28;20051;-79
2022/06/02 08:27:12;;;;;;;10.55;4.40;;;11.10;99.90;;;;;;5029693;28;20037;-80
2022/06/02 08:29:53;;;;;;;8.05;4.32;;;11.20;99.90;;;;;;5038399;28;20048;-77
2022/06/02 08:32:26;;;;;;;8.70;3.60;;;11.10;99.90;;;;;;5028359;28;20053;-77
2022/06/02 08:35:05;;;;;;;9.57;4.53;;;11.00;99.90;;;;;;5037604;28;20083;-80
2022/06/02 08:37:53;;;;;;;7.30;4.00;;;11.00;99.90;;;;;;5031906;28;20021;-79
2022/06/02 08:40:30;;;;;;;7.50;5.32;;;10.90;99.90;;;;;;5045150;28;20032;-79
2022/06/02 08:43:16;;;;;;;7.53;4.75;;;10.90;99.90;;;;;;5043696;28;20032;-78
2022/06/02 08:46:07;;;;;;;7.13;3.67;;;10.80;99.90;;;;;;5025955;28;20048;-83
2022/06/02 08:48:59;;;;;;;10.07;4.20;;;10.70;99.90;;;;;;5039869;28;20045;-81
2022/06/02 08:51:51;;;;;;;6.55;4.22;;;10.60;99.90;;;;;;5035081;28;20033;-81
2022/06/02 08:54:49;;;;;;;6.80;3.97;;;10.60;99.90;;;;;;5040485;28;20033;-78
2022/06/02 08:57:37;;;;;;;9.57;3.85;;;10.50;99.90;;;;;;5038770;28;20032;-78
2022/06/02 09:00:43;;;;;;;9.45;4.93;;;10.50;99.90;;;;;;5035592;28;20147;-76
2022/06/02 09:03:41;;;;;;;9.40;4.00;;;10.40;99.90;;;;;;5004991;28;20104;-78
2022/06/02 09:06:38;;;;;;;9.02;4.63;;;10.40;99.90;;;;;;5031654;28;20067;-77
2022/06/02 09:09:06;;;;;;;8.50;4.90;;;10.40;99.90;;;;;;5040886;28;20036;-78
2022/06/02 09:11:51;;;;;;;6.60;4.15;;;10.30;99.90;;;;;;5032970;28;20030;-77
2022/06/02 09:14:25;;;;;;;12.40;4.93;;;10.30;99.90;;;;;;5039012;28;20116;-78
2022/06/02 09:16:58;;;;;;;7.22;4.75;;;10.20;99.90;;;;;;5056764;28;20029;-78
2022/06/02 09:19:35;;;;;;;7.68;4.07;;;10.20;99.90;;;;;;5066305;28;20024;-78
2022/06/02 09:22:14;;;;;;;5.60;3.50;;;10.20;99.90;;;;;;5044622;28;20029;-77
2022/06/02 09:25:02;;;;;;;4.93;3.38;;;10.10;99.90;;;;;;5042027;28;20056;-76
2022/06/02 09:27:59;;;;;;;5.55;3.13;;;10.10;99.90;;;;;;5048132;28;20034;-77
2022/06/02 09:31:06;;;;;;;6.20;4.10;;;10.00;99.90;;;;;;5038277;28;20033;-75
2022/06/02 09:33:43;;;;;;;8.80;4.07;;;10.00;99.90;;;;;;5033124;28;20067;-76
2022/06/02 09:36:52;;;;;;;6.03;3.72;;;9.90;99.90;;;;;;5044652;28;20034;-77
2022/06/02 09:39:19;;;;;;;8.18;4.03;;;9.90;99.90;;;;;;5041775;28;20359;-76
2022/06/02 09:42:08;;;;;;;8.82;4.13;;;9.90;99.90;;;;;;5050227;28;20032;-77
2022/06/02 09:45:01;;;;;;;5.20;3.38;;;9.90;99.90;;;;;;5050664;28;20248;-78
2022/06/02 09:47:49;;;;;;;5.28;3.55;;;9.90;99.90;;;;;;5052829;28;20035;-75
2022/06/02 09:50:29;;;;;;;5.50;3.90;;;9.90;99.90;;;;;;5047983;28;20045;-75
2022/06/02 09:53:18;;;;;;;8.95;4.85;;;9.90;99.90;;;;;;5033781;28;20025;-78
2022/06/02 09:56:09;;;;;;;8.38;5.07;;;9.90;99.90;;;;;;5044298;28;20124;-79
2022/06/02 09:58:48;;;;;;;7.63;5.03;;;9.90;99.90;;;;;;5049269;28;20358;-76
2022/06/02 10:01:45;;;;;;;9.68;4.03;;;9.90;99.90;;;;;;5038251;28;20069;-78
2022/06/02 10:04:28;;;;;;;8.43;5.50;;;9.90;99.90;;;;;;5037364;28;20029;-77
2022/06/02 10:07:18;;;;;;;7.72;5.75;;;9.80;99.90;;;;;;5041571;28;20024;-78
2022/06/02 10:10:03;;;;;;;8.23;4.75;;;9.80;99.90;;;;;;5049710;28;20032;-77
2022/06/02 10:12:54;;;;;;;7.07;4.63;;;9.70;99.90;;;;;;5043405;28;20025;-77
2022/06/02 10:15:43;;;;;;;9.15;5.45;;;9.70;99.90;;;;;;5050162;28;20334;-78
2022/06/02 10:18:19;;;;;;;7.82;6.10;;;9.60;99.90;;;;;;5048520;28;20699;-77
2022/06/02 10:20:46;;;;;;;;;;;9.50;99.90;;;;;;5031822;28;20439;-76
2022/06/02 10:23:24;;;;;;;;;;;9.40;99.90;;;;;;5037929;28;19960;-77
2022/06/02 10:26:00;;;;;;;9.13;6.65;;;9.40;99.90;;;;;;5031888;28;19908;-77
2022/06/02 10:28:30;;;;;;;11.65;7.18;;;9.40;99.90;;;;;;5040774;28;20033;-77
2022/06/02 10:31:43;;;;;;;12.27;7.40;;;9.30;99.90;;;;;;5037366;28;20031;-78
2022/06/02 10:34:47;;;;;;;9.85;6.82;;;9.40;99.90;;;;;;5038867;28;20083;-77
2022/06/02 10:37:49;;;;;;;15.05;8.63;;;9.40;99.90;;;;;;5050824;28;20033;-75
2022/06/02 10:40:58;;;;;;;13.50;8.90;;;9.40;99.90;;;;;;5043336;28;20131;-77
2022/06/02 10:43:46;;;;;;;16.75;9.43;;;9.40;99.90;;;;;;5030007;28;20119;-77
2022/06/02 10:46:50;;;;;;;12.73;9.07;;;9.40;99.90;;;;;;5031489;28;20032;-78
2022/06/02 10:50:00;;;;;;;15.82;8.88;;;9.30;99.90;;;;;;5031191;28;20044;-77
2022/06/02 10:52:57;;;;;;;13.70;8.85;;;9.30;99.90;;;;;;5013481;28;20072;-76
2022/06/02 10:55:48;;;;;;;13.38;9.88;;;9.30;99.90;;;;;;5039799;28;20037;-77
2022/06/02 10:58:34;;;;;;;13.45;8.73;;;9.20;99.90;;;;;;5034201;28;20199;-77
2022/06/02 11:01:22;;;;;;;18.25;10.90;;;9.30;99.90;;;;;;5034065;28;20029;-77
2022/06/02 11:04:04;;;;;;;19.58;11.07;;;9.20;99.90;;;;;;5046441;28;20442;-77
2022/06/02 11:06:37;;;;;;;18.27;11.73;;;9.20;99.90;;;;;;5041658;28;20028;-77
2022/06/02 11:09:37;;;;;;;24.40;12.48;;;9.20;99.90;;;;;;5037957;28;20503;-76
2022/06/02 11:12:29;;;;;;;17.45;12.38;;;9.10;99.90;;;;;;5048589;28;20035;-78
2022/06/02 11:15:02;;;;;;;17.77;11.05;;;9.00;99.90;;;;;;5046598;28;20033;-76
2022/06/02 11:17:50;;;;;;;15.57;10.98;;;8.90;99.90;;;;;;5034211;28;20022;-76
2022/06/02 11:21:04;;;;;;;17.50;10.85;;;8.90;99.90;;;;;;5046934;28;20505;-76
2022/06/02 11:23:58;;;;;;;14.45;9.23;;;8.80;99.90;;;;;;5031083;28;20053;-77
2022/06/02 11:26:31;;;;;;;13.00;9.63;;;8.70;99.90;;;;;;5050229;28;20044;-77
2022/06/02 11:29:17;;;;;;;14.52;9.95;;;8.70;99.90;;;;;;5046603;28;20082;-76
2022/06/02 11:32:08;;;;;;;12.27;7.82;;;8.70;99.90;;;;;;5048798;28;20029;-77
2022/06/02 11:34:57;;;;;;;14.23;8.32;;;8.60;99.90;;;;;;5032856;28;20139;-78
2022/06/02 11:38:00;;;;;;;14.65;7.55;;;8.60;99.90;;;;;;5043704;28;20033;-76
2022/06/02 11:40:58;;;;;;;10.75;6.10;;;8.60;99.90;;;;;;5044948;28;20037;-80
2022/06/02 11:44:06;;;;;;;10.57;7.03;;;8.50;99.90;;;;;;5034935;28;20025;-78
2022/06/02 11:46:52;;;;;;;9.60;6.20;;;8.50;99.90;;;;;;5035781;28;20032;-77
2022/06/02 11:49:53;;;;;;;12.30;6.78;;;8.50;99.90;;;;;;5031850;28;20053;-75
2022/06/02 11:52:43;;;;;;;10.85;6.32;;;8.40;99.90;;;;;;5035088;28;20061;-77
2022/06/02 11:55:37;;;;;;;14.40;8.10;;;8.40;99.90;;;;;;5043074;28;20407;-76
2022/06/02 11:58:37;;;;;;;9.60;7.38;;;8.40;99.90;;;;;;5035395;28;20072;-81
2022/06/02 12:01:58;;;;;;;14.00;7.93;;;8.40;99.90;;;;;;5035260;28;20111;-81
2022/06/02 12:04:49;;;;;;;13.10;7.85;;;8.30;99.90;;;;;;5020189;28;20271;-81
2022/06/02 12:07:49;;;;;;;13.90;8.40;;;8.40;99.90;;;;;;5014184;28;20408;-76
2022/06/02 12:10:51;;;;;;;13.48;8.48;;;8.40;99.90;;;;;;5030505;28;20447;-80
2022/06/02 12:13:19;;;;;;;17.48;9.27;;;8.50;99.90;;;;;;5043255;28;20052;-81
2022/06/02 12:16:07;;;;;;;16.27;9.48;;;8.60;99.90;;;;;;5032179;28;20047;-81
2022/06/02 12:18:54;;;;;;;16.33;9.75;;;8.70;99.90;;;;;;5029327;28;20025;-81
2022/06/02 12:21:31;;;;;;;15.13;9.80;;;8.70;99.90;;;;;;5036449;28;20107;-81
2022/06/02 12:24:12;;;;;;;22.30;11.70;;;8.80;99.90;;;;;;5032444;28;20400;-79
2022/06/02 12:27:00;;;;;;;19.38;12.35;;;8.80;99.90;;;;;;5054965;28;20036;-76
2022/06/02 12:29:52;;;;;;;21.60;13.43;;;8.70;99.90;;;;;;5054600;28;20101;-80
2022/06/02 12:32:45;;;;;;;22.13;14.80;;;8.70;99.90;;;;;;5057201;28;20472;-78
2022/06/02 12:35:24;;;;;;;18.83;12.88;;;8.70;99.90;;;;;;5041112;28;20056;-79
2022/06/02 12:38:10;;;;;;;20.65;13.68;;;8.60;99.90;;;;;;5034536;28;20025;-81
2022/06/02 12:40:40;;;;;;;17.85;13.23;;;8.60;99.90;;;;;;5044030;28;20025;-79
2022/06/02 12:43:33;;;;;;;18.27;12.57;;;8.60;99.90;;;;;;5040216;28;20585;-82
2022/06/02 12:46:23;;;;;;;16.85;11.60;;;8.60;99.90;;;;;;5032774;28;20060;-80
2022/06/02 12:48:56;;;;;;;19.23;11.48;;;8.60;99.90;;;;;;5034987;28;20041;-78
2022/06/02 12:51:34;;;;;;;18.83;12.52;;;8.60;99.90;;;;;;5032700;28;20033;-77
2022/06/02 12:54:17;;;;;;;18.05;12.20;;;8.60;99.90;;;;;;5032967;28;20046;-78
2022/06/02 12:57:25;;;;;;;22.13;14.43;;;8.60;99.90;;;;;;5032553;28;20021;-77
2022/06/02 12:59:58;;;;;;;18.73;11.63;;;8.60;99.90;;;;;;5018177;28;20437;-78
2022/06/02 13:02:59;;;;;;;18.17;11.57;;;8.60;99.90;;;;;;5040367;28;20045;-80
2022/06/02 13:05:41;;;;;;;19.42;11.88;;;8.60;99.90;;;;;;5036391;28;20025;-79
2022/06/02 13:08:23;;;;;;;21.95;12.10;;;8.60;99.90;;;;;;5041041;28;20115;-76
2022/06/02 13:11:18;;;;;;;18.83;10.73;;;8.60;99.90;;;;;;5040291;28;20101;-75
2022/06/02 13:14:10;;;;;;;17.98;11.80;;;8.60;99.90;;;;;;5043934;28;20044;-75
2022/06/02 13:16:58;;;;;;;23.88;11.20;;;8.60;99.90;;;;;;5039971;28;20387;-75
2022/06/02 13:19:58;;;;;;;21.42;12.40;;;8.60;99.90;;;;;;5035223;28;20029;-76
2022/06/02 13:22:30;;;;;;;18.30;12.30;;;8.60;99.90;;;;;;5046076;28;20191;-79
2022/06/02 13:25:15;;;;;;;18.65;12.82;;;8.50;99.90;;;;;;5050351;28;20108;-77
2022/06/02 13:28:19;;;;;;;19.95;12.32;;;8.60;99.90;;;;;;5034832;28;20044;-78
2022/06/02 13:31:33;;;;;;;17.80;11.48;;;8.50;99.90;;;;;;5031827;28;20386;-83
2022/06/02 13:34:33;;;;;;;14.95;10.07;;;8.50;99.90;;;;;;5048232;28;20152;-80
2022/06/02 13:37:22;;;;;;;15.82;10.82;;;8.50;99.90;;;;;;5040607;28;20059;-79
2022/06/02 13:40:13;;;;;;;12.05;8.95;;;8.50;99.90;;;;;;5050666;28;20029;-79
2022/06/02 13:43:13;;;;;;;16.48;9.75;;;8.50;99.90;;;;;;5048949;28;20120;-80
2022/06/02 13:46:01;;;;;;;15.77;9.57;;;8.50;99.90;;;;;;5051464;28;20081;-79
2022/06/02 13:49:19;;;;;;;15.10;10.07;;;8.40;99.90;;;;;;5046830;28;20402;-79
2022/06/02 13:52:05;;;;;;;12.93;9.05;;;8.50;99.90;;;;;;5054793;28;20049;-78
2022/06/02 13:58:08;;;;;;;17.02;10.27;;;8.40;99.90;;;;;;5049751;28;20155;-79
2022/06/02 14:00:53;;;;;;;23.77;12.85;;;8.40;99.90;;;;;;5037143;28;20048;-79
2022/06/02 14:03:51;;;;;;;25.00;12.07;;;8.40;99.90;;;;;;5043616;28;20022;-77
2022/06/02 14:06:26;;;;;;;18.80;9.35;;;8.30;99.90;;;;;;5042354;28;20040;-77
2022/06/02 14:09:14;;;;;;;17.37;10.93;;;8.20;99.90;;;;;;5044288;28;20155;-77
2022/06/02 14:11:54;;;;;;;21.30;9.02;;;8.20;99.90;;;;;;5049037;28;20021;-79
2022/06/02 14:14:34;;;;;;;16.92;9.13;;;8.10;99.90;;;;;;5056616;28;20131;-78
2022/06/02 14:17:01;;;;;;;9.60;6.47;;;8.00;99.90;;;;;;5048084;28;20033;-78
2022/06/02 14:19:50;;;;;;;11.20;6.85;;;7.90;99.90;;;;;;5042648;28;20115;-74
2022/06/02 14:22:46;;;;;;;12.40;6.53;;;7.90;99.90;;;;;;5035018;28;20029;-75
2022/06/02 14:25:26;;;;;;;14.68;8.57;;;7.80;99.90;;;;;;5042079;28;20039;-74
2022/06/02 14:28:14;;;;;;;13.27;6.95;;;7.70;99.90;;;;;;5036486;28;20025;-75
2022/06/02 14:30:55;;;;;;;13.88;6.85;;;7.70;99.90;;;;;;5041733;28;20505;-74
2022/06/02 14:33:35;;;;;;;11.30;6.43;;;7.50;99.90;;;;;;5029090;28;20079;-77
2022/06/02 14:36:26;;;;;;;11.73;6.28;;;7.50;99.90;;;;;;5037324;28;20479;-77
2022/06/02 14:39:33;;;;;;;17.35;6.85;;;7.40;99.90;;;;;;5044964;28;20034;-78
2022/06/02 14:42:15;;;;;;;12.43;6.00;;;7.30;99.90;;;;;;5037551;28;20060;-78
2022/06/02 14:44:49;;;;;;;14.45;7.28;;;7.20;99.90;;;;;;5032887;28;20116;-78
2022/06/02 14:47:30;;;;;;;15.65;6.30;;;7.20;99.90;;;;;;5037975;28;20037;-77